Time;durP1;ratioP1;P1;durP2;ratioP2;P2;SDS_P1;SDS_P2;PMS_P1;PMS_P2;Temp;Humidity;BMP_temperature;BMP_pressure;BME280_temperature;BME280_humidity;BME280_pressure;Samples;Min_cycle;Max_cycle;Signal;HPM_P1;HPM_P2
2022/04/27 00:00:36;;;;;;;6.85;3.15;;;;;;;;;;5012003;28;20317;-68
2022/04/27 00:03:02;;;;;;;4.20;2.42;;;;;;;;;;5014486;28;20034;-68
2022/04/27 00:05:29;;;;;;;4.22;2.50;;;;;;;;;;5023814;28;20029;-69
2022/04/27 00:07:54;;;;;;;4.80;2.53;;;;;;;;;;5018575;28;20048;-69
2022/04/27 00:10:20;;;;;;;5.28;2.97;;;;;;;;;;5011258;28;20042;-69
2022/04/27 00:12:46;;;;;;;4.20;2.60;;;;;;;;;;5010246;28;20034;-69
2022/04/27 00:15:12;;;;;;;5.82;2.90;;;;;;;;;;5018930;28;20241;-68
2022/04/27 00:17:37;;;;;;;4.57;2.83;;;;;;;;;;5013507;28;20061;-69
2022/04/27 00:20:04;;;;;;;4.30;2.60;;;;;;;;;;5029223;28;20041;-69
2022/04/27 00:22:30;;;;;;;5.30;2.75;;;;;;;;;;5015068;28;20465;-68
2022/04/27 00:25:00;;;;;;;4.07;2.38;;;;;;;;;;5016031;28;20092;-69
2022/04/27 00:27:26;;;;;;;7.32;2.45;;;;;;;;;;5013899;28;20064;-69
2022/04/27 00:29:51;;;;;;;3.88;1.88;;;;;;;;;;5014591;28;20033;-69
2022/04/27 00:32:17;;;;;;;6.93;2.22;;;;;;;;;;5011580;28;20037;-68
2022/04/27 00:34:42;;;;;;;1.63;1.05;;;;;;;;;;5013923;28;20107;-69
2022/04/27 00:37:08;;;;;;;3.72;1.65;;;;;;;;;;5010548;28;20065;-68
2022/04/27 00:39:33;;;;;;;5.20;2.25;;;;;;;;;;5011497;28;20036;-69
2022/04/27 00:42:02;;;;;;;6.50;2.20;;;;;;;;;;5018452;28;20436;-69
2022/04/27 00:44:36;;;;;;;3.85;2.00;;;;;;;;;;5018535;28;20076;-68
2022/04/27 00:47:02;;;;;;;8.82;2.60;;;;;;;;;;5011036;28;20068;-68
2022/04/27 00:49:27;;;;;;;7.38;1.90;;;;;;;;;;5016540;28;20072;-69
2022/04/27 00:51:53;;;;;;;3.45;1.90;;;;;;;;;;5012302;28;20038;-69
2022/04/27 00:54:22;;;;;;;5.55;1.75;;;;;;;;;;5023290;28;20045;-69
2022/04/27 00:56:48;;;;;;;4.57;1.70;;;;;;;;;;5013492;28;20040;-69
2022/04/27 00:59:14;;;;;;;2.33;1.48;;;;;;;;;;5014852;28;20366;-69
2022/04/27 01:01:39;;;;;;;4.07;1.95;;;;;;;;;;5013573;28;20052;-68
2022/04/27 01:04:07;;;;;;;2.90;1.98;;;;;;;;;;5022980;28;20033;-69
2022/04/27 01:06:32;;;;;;;3.78;2.00;;;;;;;;;;5013458;28;20041;-68
2022/04/27 01:08:58;;;;;;;4.00;2.00;;;;;;;;;;5014144;28;20129;-69
2022/04/27 01:11:23;;;;;;;7.00;1.95;;;;;;;;;;5013673;28;20037;-69
2022/04/27 01:13:49;;;;;;;4.15;1.90;;;;;;;;;;5019089;28;20045;-69
2022/04/27 01:16:14;;;;;;;4.40;1.95;;;;;;;;;;5018969;28;20037;-69
2022/04/27 01:18:40;;;;;;;3.90;1.98;;;;;;;;;;5017291;28;20117;-69
2022/04/27 01:21:05;;;;;;;2.83;1.85;;;;;;;;;;5014316;28;20470;-68
2022/04/27 01:23:30;;;;;;;4.45;2.17;;;;;;;;;;5014385;28;20114;-69
2022/04/27 01:25:59;;;;;;;4.10;1.75;;;;;;;;;;5014408;28;20033;-69
2022/04/27 01:28:27;;;;;;;3.83;2.00;;;;;;;;;;5015756;28;20413;-69
2022/04/27 01:30:57;;;;;;;5.68;1.98;;;;;;;;;;5011039;28;20038;-68
2022/04/27 01:33:23;;;;;;;3.15;1.80;;;;;;;;;;5018513;28;20087;-69
2022/04/27 01:35:49;;;;;;;7.50;2.38;;;;;;;;;;5024169;28;20037;-69
2022/04/27 01:38:16;;;;;;;5.60;1.98;;;;;;;;;;5018299;28;20046;-69
2022/04/27 01:40:42;;;;;;;4.80;2.00;;;;;;;;;;5015348;28;20096;-68
2022/04/27 01:43:07;;;;;;;2.92;1.90;;;;;;;;;;5018351;28;20030;-68
2022/04/27 01:45:32;;;;;;;3.90;2.25;;;;;;;;;;5030748;28;20037;-68
2022/04/27 01:47:58;;;;;;;4.18;2.10;;;;;;;;;;5017297;28;20025;-69
2022/04/27 01:50:23;;;;;;;7.32;2.00;;;;;;;;;;5025765;28;20476;-69
2022/04/27 01:55:33;;;;;;;;;;;;;;;;;;5017798;28;20048;-68
2022/04/27 01:57:59;;;;;;;4.63;2.08;;;;;;;;;;5017253;28;19918;-68
2022/04/27 02:00:25;;;;;;;3.85;1.92;;;;;;;;;;5019028;28;20200;-68
2022/04/27 02:02:50;;;;;;;6.70;2.38;;;;;;;;;;5016435;28;20029;-68
2022/04/27 02:05:15;;;;;;;3.72;1.90;;;;;;;;;;5023692;28;20047;-68
2022/04/27 02:07:43;;;;;;;4.35;1.98;;;;;;;;;;5010745;28;20124;-68
2022/04/27 02:10:09;;;;;;;6.22;2.20;;;;;;;;;;5011213;28;20101;-69
2022/04/27 02:12:34;;;;;;;3.78;1.95;;;;;;;;;;5028580;28;20466;-69
2022/04/27 02:15:00;;;;;;;8.38;2.10;;;;;;;;;;5015673;28;20117;-68
2022/04/27 02:17:25;;;;;;;3.40;2.00;;;;;;;;;;5011700;28;20112;-68
2022/04/27 02:19:51;;;;;;;9.27;2.17;;;;;;;;;;5015366;28;20100;-69
2022/04/27 02:22:16;;;;;;;4.80;1.90;;;;;;;;;;5016280;28;20037;-69
2022/04/27 02:24:42;;;;;;;3.72;2.17;;;;;;;;;;5025534;28;20638;-68
2022/04/27 02:27:07;;;;;;;4.15;2.40;;;;;;;;;;5015952;28;20092;-68
2022/04/27 02:29:32;;;;;;;4.72;2.03;;;;;;;;;;5028494;28;20049;-69
2022/04/27 02:31:58;;;;;;;2.88;1.80;;;;;;;;;;5025405;28;20030;-68
2022/04/27 02:34:23;;;;;;;9.82;2.22;;;;;;;;;;5023625;28;20037;-69
2022/04/27 02:36:49;;;;;;;3.45;2.17;;;;;;;;;;5016960;28;20066;-68
2022/04/27 02:39:14;;;;;;;6.35;2.30;;;;;;;;;;5017131;28;20037;-69
2022/04/27 02:41:41;;;;;;;3.83;2.10;;;;;;;;;;5015944;28;20042;-69
2022/04/27 02:44:06;;;;;;;6.20;2.50;;;;;;;;;;5017775;28;20041;-69
2022/04/27 02:46:32;;;;;;;7.00;2.00;;;;;;;;;;5016912;28;20030;-69
2022/04/27 02:51:51;;;;;;;6.15;2.08;;;;;;;;;;5011165;28;20053;-69
2022/04/27 02:54:21;;;;;;;5.00;2.20;;;;;;;;;;5009765;28;20034;-69
2022/04/27 02:56:47;;;;;;;6.10;2.50;;;;;;;;;;5009997;28;20052;-69
2022/04/27 02:59:12;;;;;;;7.35;2.70;;;;;;;;;;5016955;28;20037;-69
2022/04/27 03:01:40;;;;;;;5.88;2.22;;;;;;;;;;5012242;28;20505;-69
2022/04/27 03:04:07;;;;;;;5.18;2.28;;;;;;;;;;5024285;28;20048;-69
2022/04/27 03:06:32;;;;;;;4.50;2.20;;;;;;;;;;5019433;28;20113;-68
2022/04/27 03:08:58;;;;;;;3.30;2.05;;;;;;;;;;5016254;28;20118;-69
2022/04/27 03:11:24;;;;;;;5.75;2.20;;;;;;;;;;5021560;28;20038;-69
2022/04/27 03:13:50;;;;;;;6.68;2.13;;;;;;;;;;5022697;28;20038;-68
2022/04/27 03:16:15;;;;;;;5.13;2.25;;;;;;;;;;5017777;28;20458;-68
2022/04/27 03:18:41;;;;;;;6.82;2.40;;;;;;;;;;5021485;28;20122;-68
2022/04/27 03:21:07;;;;;;;7.13;2.20;;;;;;;;;;5017217;28;20060;-68
2022/04/27 03:23:32;;;;;;;5.90;2.20;;;;;;;;;;5016242;28;20470;-68
2022/04/27 03:25:57;;;;;;;4.07;2.40;;;;;;;;;;5016017;28;20041;-68
2022/04/27 03:28:23;;;;;;;5.55;2.40;;;;;;;;;;5016216;28;20050;-68
2022/04/27 03:30:49;;;;;;;5.70;2.28;;;;;;;;;;5004883;28;20044;-68
2022/04/27 03:33:15;;;;;;;5.20;2.25;;;;;;;;;;5017200;28;20041;-69
2022/04/27 03:35:41;;;;;;;4.53;2.42;;;;;;;;;;5019382;28;20129;-68
2022/04/27 03:38:08;;;;;;;6.70;2.50;;;;;;;;;;5016086;28;20530;-68
2022/04/27 03:40:34;;;;;;;5.40;1.98;;;;;;;;;;5016088;28;20041;-68
2022/04/27 03:42:59;;;;;;;5.00;2.63;;;;;;;;;;5015376;28;20446;-69
2022/04/27 03:45:24;;;;;;;5.03;2.20;;;;;;;;;;5009969;28;20030;-68
2022/04/27 03:47:50;;;;;;;7.95;2.33;;;;;;;;;;5014796;28;20046;-69
2022/04/27 03:50:16;;;;;;;7.40;2.40;;;;;;;;;;5024758;28;20091;-68
2022/04/27 03:52:42;;;;;;;5.25;2.33;;;;;;;;;;5011029;28;20029;-68
2022/04/27 03:55:08;;;;;;;3.85;2.30;;;;;;;;;;5015144;28;20125;-68
2022/04/27 03:57:33;;;;;;;8.85;2.53;;;;;;;;;;5014318;28;20125;-68
2022/04/27 03:59:59;;;;;;;4.78;2.60;;;;;;;;;;5016207;28;20053;-68
2022/04/27 04:02:24;;;;;;;4.18;2.35;;;;;;;;;;5014406;28;20099;-68
2022/04/27 04:04:49;;;;;;;7.15;2.28;;;;;;;;;;5016373;28;20030;-68
2022/04/27 04:07:15;;;;;;;4.72;2.17;;;;;;;;;;5011575;28;20069;-68
2022/04/27 04:09:40;;;;;;;5.55;2.38;;;;;;;;;;5008935;28;20393;-68
2022/04/27 04:12:06;;;;;;;7.00;2.55;;;;;;;;;;5008219;28;20067;-69
2022/04/27 04:14:32;;;;;;;4.60;2.40;;;;;;;;;;5011057;28;20492;-68
2022/04/27 04:16:58;;;;;;;4.72;2.08;;;;;;;;;;5005026;28;20042;-68
2022/04/27 04:19:23;;;;;;;3.85;2.05;;;;;;;;;;5024134;28;20038;-68
2022/04/27 04:21:49;;;;;;;8.15;2.55;;;;;;;;;;5014665;28;20073;-68
2022/04/27 04:24:14;;;;;;;7.80;2.67;;;;;;;;;;5020203;28;20500;-68
2022/04/27 04:29:23;;;;;;;4.72;2.47;;;;;;;;;;5009833;28;20036;-68
2022/04/27 04:31:49;;;;;;;5.25;2.08;;;;;;;;;;5011398;28;20046;-68
2022/04/27 04:34:14;;;;;;;16.48;2.80;;;;;;;;;;5022425;28;20033;-68
2022/04/27 04:36:40;;;;;;;9.77;2.95;;;;;;;;;;5011625;28;20520;-68
2022/04/27 04:39:05;;;;;;;6.75;2.88;;;;;;;;;;5013812;28;20080;-68
2022/04/27 04:41:30;;;;;;;4.63;2.45;;;;;;;;;;5012602;28;20030;-68
2022/04/27 04:43:56;;;;;;;5.07;3.05;;;;;;;;;;5014438;28;20121;-69
2022/04/27 04:46:21;;;;;;;5.28;2.70;;;;;;;;;;5014853;28;20041;-68
2022/04/27 04:48:47;;;;;;;8.43;2.90;;;;;;;;;;5018128;28;20039;-68
2022/04/27 04:51:12;;;;;;;11.90;2.67;;;;;;;;;;5011285;28;20034;-68
2022/04/27 04:53:37;;;;;;;8.48;2.88;;;;;;;;;;5014554;28;20053;-68
2022/04/27 04:56:03;;;;;;;4.30;2.70;;;;;;;;;;5013447;28;20034;-68
2022/04/27 04:58:29;;;;;;;6.55;3.10;;;;;;;;;;5016560;28;20057;-68
2022/04/27 05:00:54;;;;;;;8.75;2.72;;;;;;;;;;5016513;28;20052;-68
2022/04/27 05:03:20;;;;;;;3.90;2.60;;;;;;;;;;5014881;28;20034;-68
2022/04/27 05:05:45;;;;;;;5.15;2.60;;;;;;;;;;5017344;28;20049;-68
2022/04/27 05:08:11;;;;;;;7.85;3.30;;;;;;;;;;5010018;28;20043;-68
2022/04/27 05:10:36;;;;;;;7.47;2.72;;;;;;;;;;5019117;28;20038;-69
2022/04/27 05:13:02;;;;;;;4.05;2.40;;;;;;;;;;5013446;28;20393;-68
2022/04/27 05:15:27;;;;;;;4.45;2.88;;;;;;;;;;5014495;28;20049;-68
2022/04/27 05:17:53;;;;;;;5.65;2.80;;;;;;;;;;5014361;28;20025;-68
2022/04/27 05:20:18;;;;;;;7.78;2.42;;;;;;;;;;5014406;28;20458;-68
2022/04/27 05:22:44;;;;;;;5.75;3.00;;;;;;;;;;5014486;28;20037;-68
2022/04/27 05:25:10;;;;;;;7.57;3.30;;;;;;;;;;5014216;28;20026;-68
2022/04/27 05:27:37;;;;;;;6.78;2.95;;;;;;;;;;5014480;28;20037;-68
2022/04/27 05:32:48;;;;;;;6.30;2.80;;;;;;;;;;5016265;28;20056;-68
2022/04/27 05:35:13;;;;;;;4.35;2.70;;;;;;;;;;5015264;28;20490;-68
2022/04/27 05:37:39;;;;;;;6.20;3.05;;;;;;;;;;5020449;28;20042;-69
2022/04/27 05:40:06;;;;;;;3.83;2.38;;;;;;;;;;5014137;28;20060;-68
2022/04/27 05:42:31;;;;;;;5.45;2.67;;;;;;;;;;5014121;28;20132;-68
2022/04/27 05:44:57;;;;;;;4.10;2.47;;;;;;;;;;5015295;28;20122;-68
2022/04/27 05:47:23;;;;;;;6.82;2.80;;;;;;;;;;5013217;28;20026;-68
2022/04/27 05:49:50;;;;;;;6.40;2.90;;;;;;;;;;5016110;28;20061;-69
2022/04/27 05:52:16;;;;;;;9.60;2.97;;;;;;;;;;5013024;28;20029;-69
2022/04/27 05:54:41;;;;;;;6.88;2.50;;;;;;;;;;5016918;28;20034;-69
2022/04/27 05:57:07;;;;;;;5.28;2.75;;;;;;;;;;5019575;28;20045;-68
2022/04/27 05:59:32;;;;;;;6.72;2.65;;;;;;;;;;5022401;28;20030;-68
2022/04/27 06:01:58;;;;;;;8.70;2.58;;;;;;;;;;5016341;28;20045;-69
2022/04/27 06:04:25;;;;;;;5.35;2.53;;;;;;;;;;5022593;28;20029;-69
2022/04/27 06:06:50;;;;;;;4.97;2.38;;;;;;;;;;5012836;28;20485;-69
2022/04/27 06:09:16;;;;;;;3.97;2.08;;;;;;;;;;5018230;28;20065;-69
2022/04/27 06:11:41;;;;;;;7.20;2.10;;;;;;;;;;5007888;28;20069;-68
2022/04/27 06:14:07;;;;;;;3.33;2.00;;;;;;;;;;5018160;28;20097;-68
2022/04/27 06:16:34;;;;;;;4.07;2.22;;;;;;;;;;5012573;28;20389;-68
2022/04/27 06:19:00;;;;;;;4.50;2.45;;;;;;;;;;5021141;28;20044;-68
2022/04/27 06:21:30;;;;;;;4.93;1.92;;;;;;;;;;5017306;28;20116;-69
2022/04/27 06:23:56;;;;;;;5.07;2.28;;;;;;;;;;5013799;28;20117;-69
2022/04/27 06:26:21;;;;;;;4.57;2.25;;;;;;;;;;5015457;28;20132;-68
2022/04/27 06:28:47;;;;;;;7.32;2.20;;;;;;;;;;5016142;28;20042;-68
2022/04/27 06:31:12;;;;;;;6.07;1.92;;;;;;;;;;5016244;28;20029;-69
2022/04/27 06:33:38;;;;;;;5.97;2.13;;;;;;;;;;5016020;28;20038;-68
2022/04/27 06:36:03;;;;;;;8.55;2.28;;;;;;;;;;5015916;28;20458;-69
2022/04/27 06:38:29;;;;;;;6.60;2.45;;;;;;;;;;5016174;28;20040;-68
2022/04/27 06:40:54;;;;;;;3.72;1.90;;;;;;;;;;5015679;28;20049;-69
2022/04/27 06:43:19;;;;;;;5.53;1.92;;;;;;;;;;5015848;28;20030;-69
2022/04/27 06:45:45;;;;;;;4.57;1.95;;;;;;;;;;5011796;28;20049;-68
2022/04/27 06:48:11;;;;;;;5.05;1.73;;;;;;;;;;5014954;28;20087;-68
2022/04/27 06:50:37;;;;;;;4.93;1.88;;;;;;;;;;5012906;28;20398;-68
2022/04/27 06:53:04;;;;;;;5.60;1.73;;;;;;;;;;5029684;28;20052;-68
2022/04/27 06:55:30;;;;;;;6.03;2.00;;;;;;;;;;5018523;28;20418;-68
2022/04/27 06:57:55;;;;;;;7.60;1.80;;;;;;;;;;5014583;28;20081;-68
2022/04/27 07:00:21;;;;;;;6.90;2.10;;;;;;;;;;5015281;28;20057;-68
2022/04/27 07:02:46;;;;;;;4.40;1.98;;;;;;;;;;5015355;28;20069;-68
2022/04/27 07:05:17;;;;;;;7.95;1.80;;;;;;;;;;5015247;28;20108;-68
2022/04/27 07:07:43;;;;;;;5.38;1.90;;;;;;;;;;5015312;28;20488;-68
2022/04/27 07:10:09;;;;;;;4.97;1.92;;;;;;;;;;5015269;28;20225;-68
2022/04/27 07:12:34;;;;;;;3.13;1.70;;;;;;;;;;5015231;28;20109;-68
2022/04/27 07:14:59;;;;;;;5.65;2.67;;;;;;;;;;5014269;28;20030;-68
2022/04/27 07:17:25;;;;;;;3.20;1.85;;;;;;;;;;5015113;28;20059;-68
2022/04/27 07:19:50;;;;;;;7.32;1.80;;;;;;;;;;5004043;28;20460;-69
2022/04/27 07:22:16;;;;;;;6.22;2.30;;;;;;;;;;5009826;28;20117;-68
2022/04/27 07:24:41;;;;;;;4.30;1.70;;;;;;;;;;5014258;28;20511;-68
2022/04/27 07:27:07;;;;;;;4.03;1.90;;;;;;;;;;5008083;28;20038;-68
2022/04/27 07:29:32;;;;;;;6.03;2.05;;;;;;;;;;5014083;28;20037;-68
2022/04/27 07:32:01;;;;;;;5.18;1.90;;;;;;;;;;5015679;28;20068;-68
2022/04/27 07:34:26;;;;;;;5.30;1.77;;;;;;;;;;5022719;28;20095;-68
2022/04/27 07:36:52;;;;;;;5.38;1.52;;;;;;;;;;5014923;28;20030;-68
2022/04/27 07:39:17;;;;;;;5.38;1.85;;;;;;;;;;5015964;28;20041;-68
2022/04/27 07:41:45;;;;;;;4.03;1.70;;;;;;;;;;5020759;28;20468;-68
2022/04/27 07:44:11;;;;;;;6.10;2.40;;;;;;;;;;5003587;28;20456;-68
2022/04/27 07:46:37;;;;;;;3.83;1.80;;;;;;;;;;5007533;28;20466;-68
2022/04/27 07:49:02;;;;;;;3.40;1.42;;;;;;;;;;5017433;28;20029;-68
2022/04/27 07:51:27;;;;;;;10.13;1.85;;;;;;;;;;5005535;28;20045;-68
2022/04/27 07:53:53;;;;;;;7.55;1.98;;;;;;;;;;5018392;28;20034;-68
2022/04/27 07:56:18;;;;;;;7.00;2.00;;;;;;;;;;5011438;28;20092;-68
2022/04/27 07:58:44;;;;;;;6.32;1.75;;;;;;;;;;5012692;28;20026;-68
2022/04/27 08:01:09;;;;;;;3.08;1.63;;;;;;;;;;5013672;28;20046;-68
2022/04/27 08:03:34;;;;;;;7.85;2.30;;;;;;;;;;5014654;28;20034;-68
2022/04/27 08:06:02;;;;;;;3.83;1.77;;;;;;;;;;5012428;28;20033;-68
2022/04/27 08:08:29;;;;;;;3.38;1.58;;;;;;;;;;5014025;28;20034;-68
2022/04/27 08:10:55;;;;;;;7.47;2.40;;;;;;;;;;5013842;28;20025;-68
2022/04/27 08:13:20;;;;;;;3.50;1.80;;;;;;;;;;5015477;28;20057;-68
2022/04/27 08:15:46;;;;;;;6.90;2.50;;;;;;;;;;5017874;28;20478;-68
2022/04/27 08:18:11;;;;;;;5.43;2.35;;;;;;;;;;5016609;28;20037;-68
2022/04/27 08:23:23;;;;;;;5.55;2.50;;;;;;;;;;5009676;28;20056;-68
2022/04/27 08:25:49;;;;;;;8.45;2.83;;;;;;;;;;5010736;28;20038;-69
2022/04/27 08:28:16;;;;;;;6.65;2.70;;;;;;;;;;5010224;28;20400;-68
2022/04/27 08:30:46;;;;;;;4.97;2.40;;;;;;;;;;5010883;28;20053;-68
2022/04/27 08:33:12;;;;;;;6.38;2.47;;;;;;;;;;5004745;28;20025;-68
2022/04/27 08:35:38;;;;;;;7.00;2.40;;;;;;;;;;5010447;28;20489;-68
2022/04/27 08:38:05;;;;;;;4.55;2.03;;;;;;;;;;5010337;28;20115;-69
2022/04/27 08:40:31;;;;;;;3.53;1.83;;;;;;;;;;5025548;28;20034;-68
2022/04/27 08:42:57;;;;;;;4.65;1.55;;;;;;;;;;5009428;28;20570;-68
2022/04/27 08:45:22;;;;;;;4.78;1.63;;;;;;;;;;5010433;28;20105;-68
2022/04/27 08:47:50;;;;;;;5.55;1.50;;;;;;;;;;5011383;28;20113;-68
2022/04/27 08:50:17;;;;;;;6.30;1.60;;;;;;;;;;5009951;28;20179;-68
2022/04/27 08:52:43;;;;;;;3.65;1.40;;;;;;;;;;5010480;28;20026;-68
2022/04/27 08:55:10;;;;;;;4.18;1.20;;;;;;;;;;5010229;28;20038;-69
2022/04/27 08:57:35;;;;;;;7.28;1.30;;;;;;;;;;5010267;28;20045;-69
2022/04/27 09:00:04;;;;;;;4.38;1.10;;;;;;;;;;5009560;28;20050;-68
2022/04/27 09:02:30;;;;;;;5.97;1.00;;;;;;;;;;5003614;28;20486;-68
2022/04/27 09:05:13;;;;;;;2.45;1.17;;;;;;;;;;5006846;28;20080;-68
2022/04/27 09:07:52;;;;;;;2.75;1.10;;;;;;;;;;5006684;28;20034;-69
2022/04/27 09:10:21;;;;;;;3.30;0.90;;;;;;;;;;5007955;28;20066;-68
2022/04/27 09:12:55;;;;;;;1.13;0.70;;;;;;;;;;5010185;28;20028;-69
2022/04/27 09:15:22;;;;;;;3.00;1.25;;;;;;;;;;4995260;28;20121;-68
2022/04/27 09:20:48;;;;;;;4.22;1.17;;;;;;;;;;5009101;28;20052;-68
2022/04/27 09:23:45;;;;;;;2.00;0.98;;;;;;;;;;4999741;28;20037;-69
2022/04/27 09:26:15;;;;;;;5.22;1.75;;;;;;;;;;4994866;28;20030;-68
2022/04/27 09:28:46;;;;;;;5.07;1.67;;;;;;;;;;5009628;28;20045;-68
2022/04/27 09:31:35;;;;;;;3.30;1.33;;;;;;;;;;5008536;28;20038;-68
2022/04/27 09:34:27;;;;;;;3.72;1.40;;;;;;;;;;5004348;28;20441;-68
2022/04/27 09:37:16;;;;;;;5.15;1.23;;;;;;;;;;5000233;28;20053;-68
2022/04/27 09:39:42;;;;;;;4.03;1.27;;;;;;;;;;5009364;28;20060;-68
2022/04/27 09:42:10;;;;;;;7.88;1.63;;;;;;;;;;5007775;28;20065;-68
2022/04/27 09:44:37;;;;;;;3.20;1.45;;;;;;;;;;5007798;28;20381;-68
2022/04/27 09:47:04;;;;;;;2.22;1.15;;;;;;;;;;5006713;28;20072;-68
2022/04/27 09:49:31;;;;;;;7.20;1.75;;;;;;;;;;5008144;28;20034;-68
2022/04/27 09:51:57;;;;;;;2.80;1.42;;;;;;;;;;5025508;28;20034;-68
2022/04/27 09:54:31;;;;;;;3.05;1.45;;;;;;;;;;5011859;28;20030;-68
2022/04/27 09:56:57;;;;;;;;;;;;;;;;;;5007839;28;20489;-69
2022/04/27 09:59:30;;;;;;;4.88;1.30;;;;;;;;;;5012090;28;19972;-68
2022/04/27 10:01:58;;;;;;;3.15;1.38;;;;;;;;;;5008173;28;20481;-69
2022/04/27 10:04:28;;;;;;;1.85;1.15;;;;;;;;;;5011101;28;20056;-69
2022/04/27 10:06:59;;;;;;;3.47;1.83;;;;;;;;;;5010943;28;20069;-69
2022/04/27 10:09:26;;;;;;;4.43;1.25;;;;;;;;;;5010369;28;20045;-68
2022/04/27 10:11:54;;;;;;;8.68;1.83;;;;;;;;;;5011582;28;20478;-68
2022/04/27 10:14:20;;;;;;;3.78;1.40;;;;;;;;;;5014755;28;20037;-69
2022/04/27 10:16:48;;;;;;;2.30;1.38;;;;;;;;;;5007550;28;20044;-69
2022/04/27 10:19:15;;;;;;;5.63;1.42;;;;;;;;;;5007856;28;20995;-68
2022/04/27 10:21:57;;;;;;;3.75;1.30;;;;;;;;;;5020017;28;20037;-68
2022/04/27 10:24:35;;;;;;;8.40;1.80;;;;;;;;;;5006933;28;20030;-68
2022/04/27 10:27:20;;;;;;;3.08;1.40;;;;;;;;;;5009458;28;20046;-68
2022/04/27 10:29:57;;;;;;;3.97;2.17;;;;;;;;;;5002073;28;20581;-69
2022/04/27 10:32:41;;;;;;;3.75;1.20;;;;;;;;;;5011202;28;20049;-69
2022/04/27 10:35:27;;;;;;;4.72;1.45;;;;;;;;;;5010852;28;20042;-68
2022/04/27 10:38:00;;;;;;;4.57;1.40;;;;;;;;;;5009602;28;20124;-69
2022/04/27 10:40:31;;;;;;;3.90;1.30;;;;;;;;;;5007478;28;20057;-68
2022/04/27 10:43:05;;;;;;;4.70;1.35;;;;;;;;;;5009773;28;20533;-69
2022/04/27 10:45:32;;;;;;;5.57;1.35;;;;;;;;;;5006969;28;20079;-68
2022/04/27 10:47:57;;;;;;;4.18;1.58;;;;;;;;;;5010253;28;20630;-69
2022/04/27 10:50:25;;;;;;;7.00;1.55;;;;;;;;;;5003341;28;20025;-68
2022/04/27 10:52:53;;;;;;;3.60;1.10;;;;;;;;;;5007040;28;20398;-68
2022/04/27 10:55:43;;;;;;;2.75;1.33;;;;;;;;;;5006431;28;20137;-68
2022/04/27 10:58:12;;;;;;;5.68;1.55;;;;;;;;;;5009325;28;20516;-68
2022/04/27 11:03:26;;;;;;;9.40;1.30;;;;;;;;;;5009828;28;20049;-68
2022/04/27 11:05:58;;;;;;;10.95;1.35;;;;;;;;;;5003933;28;20448;-68
2022/04/27 11:08:32;;;;;;;2.38;0.93;;;;;;;;;;5010164;28;20041;-68
2022/04/27 11:11:03;;;;;;;7.57;1.30;;;;;;;;;;5011407;28;20050;-68
2022/04/27 11:13:32;;;;;;;3.28;1.52;;;;;;;;;;5010875;28;20404;-68
2022/04/27 11:16:12;;;;;;;5.32;1.80;;;;;;;;;;5010731;28;20041;-68
2022/04/27 11:18:49;;;;;;;2.33;1.10;;;;;;;;;;5007002;28;20050;-69
2022/04/27 11:21:17;;;;;;;3.92;1.30;;;;;;;;;;5006568;28;20038;-68
2022/04/27 11:23:42;;;;;;;4.53;1.27;;;;;;;;;;5010900;28;20053;-69
2022/04/27 11:26:08;;;;;;;4.80;1.60;;;;;;;;;;5010778;28;20026;-68
2022/04/27 11:28:34;;;;;;;3.47;1.40;;;;;;;;;;5009848;28;20037;-69
2022/04/27 11:31:00;;;;;;;2.63;1.33;;;;;;;;;;5008511;28;20554;-68
2022/04/27 11:33:25;;;;;;;5.15;1.55;;;;;;;;;;5036460;28;20044;-68
2022/04/27 11:35:51;;;;;;;3.88;1.30;;;;;;;;;;5006219;28;20049;-68
2022/04/27 11:38:20;;;;;;;6.90;1.63;;;;;;;;;;5008656;28;20454;-68
2022/04/27 11:40:48;;;;;;;7.18;1.50;;;;;;;;;;5009990;28;20037;-69
2022/04/27 11:43:22;;;;;;;6.43;1.15;;;;;;;;;;5009981;28;20049;-68
2022/04/27 11:45:49;;;;;;;3.58;1.50;;;;;;;;;;5002714;28;20100;-68
2022/04/27 11:48:18;;;;;;;4.05;1.55;;;;;;;;;;5010277;28;20393;-68
2022/04/27 11:50:44;;;;;;;2.72;1.30;;;;;;;;;;5009348;28;20816;-68
2022/04/27 11:53:13;;;;;;;4.05;1.40;;;;;;;;;;5006964;28;20465;-69
2022/04/27 11:55:39;;;;;;;2.88;1.35;;;;;;;;;;5010383;28;20124;-68
2022/04/27 11:58:06;;;;;;;4.40;1.80;;;;;;;;;;5009078;28;20164;-68
2022/04/27 12:00:34;;;;;;;4.63;1.63;;;;;;;;;;5008736;28;20058;-68
2022/04/27 12:03:09;;;;;;;5.53;1.40;;;;;;;;;;5009438;28;20168;-69
2022/04/27 12:05:36;;;;;;;6.53;1.70;;;;;;;;;;5010330;28;20041;-68
2022/04/27 12:08:09;;;;;;;8.27;1.50;;;;;;;;;;5009579;28;20379;-68
2022/04/27 12:10:39;;;;;;;4.97;1.67;;;;;;;;;;5008320;28;20553;-68
2022/04/27 12:13:04;;;;;;;5.28;1.52;;;;;;;;;;5002906;28;20038;-69
2022/04/27 12:15:31;;;;;;;6.00;1.63;;;;;;;;;;5032018;28;20053;-68
2022/04/27 12:17:57;;;;;;;7.32;1.88;;;;;;;;;;5058550;28;20036;-68
2022/04/27 12:20:37;;;;;;;6.57;1.77;;;;;;;;;;5031004;28;20048;-68
2022/04/27 12:23:12;;;;;;;5.18;1.77;;;;;;;;;;5030142;28;20091;-68
2022/04/27 12:25:59;;;;;;;5.97;1.67;;;;;;;;;;5031774;28;20045;-68
2022/04/27 12:28:34;;;;;;;6.47;1.52;;;;;;;;;;5012493;28;20038;-69
2022/04/27 12:31:07;;;;;;;8.60;1.92;;;;;;;;;;5032111;28;20111;-69
2022/04/27 12:33:34;;;;;;;8.43;2.72;;;;;;;;;;5029389;28;20048;-68
2022/04/27 12:38:55;;;;;;;3.60;1.60;;;;;;;;;;5029053;28;20127;-69
2022/04/27 12:41:34;;;;;;;4.75;2.38;;;;;;;;;;5029752;28;20033;-68
2022/04/27 12:44:07;;;;;;;5.45;1.50;;;;;;;;;;5030615;28;20619;-69
2022/04/27 12:46:33;;;;;;;7.05;1.67;;;;;;;;;;5031708;28;20034;-68
2022/04/27 12:49:04;;;;;;;6.18;2.03;;;;;;;;;;5031592;28;20041;-69
2022/04/27 12:51:32;;;;;;;5.65;1.95;;;;;;;;;;5029216;28;20099;-68
2022/04/27 12:53:57;;;;;;;7.78;2.15;;;;;;;;;;5038950;28;20041;-68
2022/04/27 12:56:31;;;;;;;12.23;2.33;;;;;;;;;;5029749;28;20092;-69
2022/04/27 12:59:07;;;;;;;5.28;1.88;;;;;;;;;;5019049;28;20042;-69
2022/04/27 13:01:33;;;;;;;3.28;1.55;;;;;;;;;;5028355;28;20140;-69
2022/04/27 13:03:59;;;;;;;5.07;2.08;;;;;;;;;;5028141;28;20639;-69
2022/04/27 13:06:24;;;;;;;6.95;1.85;;;;;;;;;;5030043;28;20030;-68
2022/04/27 13:08:50;;;;;;;2.88;1.60;;;;;;;;;;5032799;28;20091;-69
2022/04/27 13:14:00;;;;;;;9.63;1.95;;;;;;;;;;5029922;28;20043;-68
2022/04/27 13:16:26;;;;;;;6.63;1.90;;;;;;;;;;5028298;28;20041;-69
2022/04/27 13:18:51;;;;;;;7.28;2.00;;;;;;;;;;5019913;28;20037;-68
2022/04/27 13:21:17;;;;;;;6.97;1.85;;;;;;;;;;5026097;28;20021;-68
2022/04/27 13:23:43;;;;;;;8.15;2.70;;;;;;;;;;5026778;28;20045;-68
2022/04/27 13:26:08;;;;;;;5.50;2.47;;;;;;;;;;5031755;28;20030;-68
2022/04/27 13:28:36;;;;;;;7.85;2.55;;;;;;;;;;5032041;28;20469;-68
2022/04/27 13:31:02;;;;;;;8.32;3.15;;;;;;;;;;5032007;28;20040;-68
2022/04/27 13:33:28;;;;;;;5.88;2.80;;;;;;;;;;5031852;28;20033;-68
2022/04/27 13:35:54;;;;;;;10.02;3.22;;;;;;;;;;5032040;28;20049;-68
2022/04/27 13:38:19;;;;;;;8.95;3.10;;;;;;;;;;5032073;28;20073;-68
2022/04/27 13:40:46;;;;;;;7.95;2.97;;;;;;;;;;5032329;28;20100;-68
2022/04/27 13:43:12;;;;;;;11.52;3.45;;;;;;;;;;5031772;28;20018;-68
2022/04/27 13:45:38;;;;;;;4.55;2.70;;;;;;;;;;5032302;28;20120;-68
2022/04/27 13:48:04;;;;;;;9.30;2.75;;;;;;;;;;5031819;28;20030;-67
2022/04/27 13:50:29;;;;;;;7.07;2.33;;;;;;;;;;5031435;28;20030;-68
2022/04/27 13:52:56;;;;;;;5.45;2.42;;;;;;;;;;5031446;28;20152;-68
2022/04/27 13:55:22;;;;;;;9.57;3.00;;;;;;;;;;5031509;28;20026;-68
2022/04/27 13:57:48;;;;;;;7.80;2.40;;;;;;;;;;5028480;28;20197;-68
2022/04/27 14:00:15;;;;;;;5.18;2.65;;;;;;;;;;5031997;28;20481;-68
2022/04/27 14:02:41;;;;;;;8.05;2.80;;;;;;;;;;5026045;28;20021;-68
2022/04/27 14:05:59;;;;;;;8.55;3.20;;;;;;;;;;5031625;28;20041;-68
2022/04/27 14:09:17;;;;;;;5.65;2.30;;;;;;;;;;5028047;28;20477;-68
2022/04/27 14:18:56;;;;;;;6.38;2.38;;;;;;;;;;5031114;28;20124;-68
2022/04/27 14:21:53;;;;;;;5.13;1.75;;;;;;;;;;5030737;28;20476;-68
2022/04/27 14:24:19;;;;;;;15.48;2.67;;;;;;;;;;5030641;28;20057;-68
2022/04/27 14:26:44;;;;;;;7.10;2.63;;;;;;;;;;5030897;28;20143;-68
2022/04/27 14:29:10;;;;;;;8.50;2.05;;;;;;;;;;5030629;28;20025;-68
2022/04/27 14:31:35;;;;;;;4.63;2.08;;;;;;;;;;5031590;28;20029;-68
2022/04/27 14:34:01;;;;;;;8.65;3.28;;;;;;;;;;5030465;28;20041;-68
2022/04/27 14:36:26;;;;;;;6.50;2.30;;;;;;;;;;5045941;28;20428;-68
2022/04/27 14:38:53;;;;;;;8.05;2.42;;;;;;;;;;5027233;28;20033;-68
2022/04/27 14:41:18;;;;;;;4.15;1.52;;;;;;;;;;5030899;28;20091;-68
2022/04/27 14:43:44;;;;;;;6.65;2.20;;;;;;;;;;5031487;28;20033;-68
2022/04/27 14:46:10;;;;;;;6.03;2.35;;;;;;;;;;5031311;28;20025;-68
2022/04/27 14:48:36;;;;;;;5.60;2.30;;;;;;;;;;5031121;28;20033;-68
2022/04/27 14:51:02;;;;;;;9.63;2.53;;;;;;;;;;5030530;28;20104;-68
2022/04/27 14:53:27;;;;;;;7.63;2.40;;;;;;;;;;5044757;28;20606;-68
2022/04/27 14:55:53;;;;;;;8.60;2.05;;;;;;;;;;5029870;28;20042;-68
2022/04/27 14:58:19;;;;;;;8.48;2.60;;;;;;;;;;5030820;28;20131;-68
2022/04/27 15:00:44;;;;;;;7.10;1.80;;;;;;;;;;5023435;28;20127;-68
2022/04/27 15:03:10;;;;;;;4.97;1.92;;;;;;;;;;5027399;28;20084;-68
2022/04/27 15:05:36;;;;;;;7.20;2.20;;;;;;;;;;5026493;28;20113;-68
2022/04/27 15:08:02;;;;;;;5.32;2.00;;;;;;;;;;5023848;28;20026;-69
2022/04/27 15:10:28;;;;;;;7.15;2.60;;;;;;;;;;5030334;28;20100;-68
2022/04/27 15:12:53;;;;;;;8.73;2.55;;;;;;;;;;5030812;28;20034;-68
2022/04/27 15:15:19;;;;;;;8.07;2.25;;;;;;;;;;5030287;28;21409;-68
2022/04/27 15:17:44;;;;;;;11.00;2.00;;;;;;;;;;5030090;28;20038;-68